Overview Statistics Trail Chart Weather Telemetry Raw packets
 

This is the latest recevied weather packets stored in our database for station/object LKCS. If no packets are shown the sender has not sent any weather packets the latest 10 day(s).

<< 7 8 9 10 11 12 13 >>
Time Temp. Humidity Pressure Rain* Wind** Luminosity Snow
1788438758 23.89° C 41% 1020 hPa - - - -
1788437118 25° C 38% 1020 hPa - - - -
1788436961 23.89° C 41% 1020 hPa - - - -
1788435158 23.89° C 44% 1020 hPa - - - -
1788433361 22.78° C 43% 1021 hPa - - - -
1788431559 22.78° C 46% 1021 hPa - - - -
1788429759 22.22° C 53% 1021 hPa - - - -
1788427958 22.78° C 43% 1021 hPa - - - -
1788426160 21.11° C 56% 1021 hPa - - - -
1788424358 21.11° C 56% 1021 hPa - - - -
1788422573 21.11° C 56% 1021 hPa - - - -
1788420785 20° C 64% 1022 hPa - - - -
1788418995 20° C 64% 1022 hPa - - - -
1788417157 17.22° C 77% 1021 hPa - - - -
1788415393 15° C 82% 1021 hPa - - - -
1788413551 13.89° C 87% 1021 hPa - - - -
1788411753 13.89° C 82% 1021 hPa - - - -
1788409951 15° C 77% 1021 hPa - - - -
1788408161 15° C 82% 1021 hPa - - - -
1788406351 15° C 82% 1021 hPa - - - -
1788404561 15° C 82% 1021 hPa - - - -
1788402751 15° C 82% 1021 hPa - - - -
1788400960 15° C 77% 1021 hPa - - - -
1788399151 16.11° C 72% 1021 hPa - - - -
1788397387 16.11° C 72% 1021 hPa - - - -

* Rain since midnight (hover to see other rain measurements)
** Current wind speed in m/s (hover to see current wind gust speed)